Cap Isabel — VRGA2 — position and weather

sailwx.info

Track history (hours):
 
Tides and Currents Weather Stations Pressure Air Temp Water Temp Dewpoint Dewpoint Depression Visibility Wind Speed Wind Dir Waves Ship Positions

Cap Isabel

Last reported at 2015-Jul-02 09:31 UTC. Time now 2015-Jul-31 15:25 UTC.
Position N 25°39' W 079°57'.
Warning: this ship's position is 29 days out of date.

Length 264 m; draft 10.9 m.

Type: Ship (hazmat cat C). MMSI: 477639500.

Date/timePositionNaut miles runAvg speedWind from/ knotsBaromVisibWave heightAir tempDewpointWater temp
2015-Jul-02 09:31N 25°39' W 079°57'1010.7
2015-Jul-02 08:33N 25°48' W 079°60'1212.2
2015-Jul-02 07:33N 26°00' W 080°03'5 5.4
2015-Jul-02 06:33N 26°05' W 080°07'0 0.2
2015-Jul-02 05:22N 26°04' W 080°07'0 0.0
2015-Jul-02 04:25N 26°04' W 080°07'0 0.0
2015-Jul-02 03:25N 26°04' W 080°07'0 0.0
2015-Jul-02 02:25N 26°04' W 080°07'0 0.0
2015-Jul-02 01:28N 26°04' W 080°07'0 0.0
2015-Jul-02 00:28N 26°04' W 080°07'0 0.0
2015-Jul-01 23:31N 26°04' W 080°07'0 0.0
2015-Jul-01 22:31N 26°04' W 080°07'0 0.0
2015-Jul-01 21:31N 26°04' W 080°07'0 0.0
2015-Jul-01 20:28N 26°04' W 080°07'0 0.0
2015-Jul-01 19:31N 26°04' W 080°07'0 0.0
2015-Jul-01 18:31N 26°04' W 080°07'0 0.0
2015-Jul-01 17:31N 26°04' W 080°07'0 0.0
2015-Jul-01 16:31N 26°04' W 080°07'0 0.0
2015-Jul-01 15:07N 26°04' W 080°07'1 1.4
2015-Jul-01 14:33N 26°05' W 080°07'6 5.6
2015-Jul-01 13:33N 26°09' W 080°02'1313.1
2015-Jul-01 12:34N 26°22' W 079°59'1414.2
2015-Jul-01 11:34N 26°36' W 079°56'1615.7
2015-Jul-01 10:34N 26°51' W 079°56'1815.4
2015-Jul-01 09:24N 27°09' W 079°56'1315.2
2015-Jul-01 08:33N 27°22' W 079°55'1514.9
2015-Jul-01 07:33N 27°37' W 079°56'26715.3
2015-Jun-30 14:09N 32°03' W 079°45'217 7.1
2015-Jun-29 07:29N 34°14' W 076°17'1516.4
2015-Jun-29 06:33N 34°23' W 076°02'21713.4
2015-Jun-28 14:19N 37°60' W 076°12'4720.5
2015-Jun-28 12:03N 38°45' W 076°26'1020.7
2015-Jun-28 11:34N 38°55' W 076°23'1614.8
2015-Jun-28 10:29N 39°11' W 076°27'6 5.4
2015-Jun-28 09:20N 39°15' W 076°33'0 0.0
2015-Jun-27 20:21N 39°15' W 076°33'4 4.8
2015-Jun-27 19:33N 39°12' W 076°30'7518.2
2015-Jun-27 15:27N 37°59' W 076°11'76 5.8
2015-Jun-27 02:26N 38°14' W 074°37'1112.3
2015-Jun-27 01:33N 38°24' W 074°32'1312.4
2015-Jun-27 00:33N 38°35' W 074°24'49 4.4
2015-Jun-26 13:32N 39°21' W 074°03'1111.1
2015-Jun-26 12:33N 39°31' W 073°58'1111.0
2015-Jun-26 11:33N 39°42' W 073°54'1110.9
2015-Jun-26 10:32N 39°53' W 073°52'3110.3
2015-Jun-26 07:33N 40°23' W 073°48'8 7.8
2015-Jun-26 06:33N 40°29' W 073°55'1212.2
2015-Jun-26 05:34N 40°39' W 074°03'2 1.6
2015-Jun-26 04:33N 40°40' W 074°05'0 0.0
2015-Jun-26 03:33N 40°40' W 074°05'0 0.0
2015-Jun-26 02:33N 40°40' W 074°05'0 0.0
2015-Jun-26 01:33N 40°40' W 074°05'0 0.0
2015-Jun-26 00:33N 40°40' W 074°05'0 0.0
2015-Jun-25 23:33N 40°40' W 074°05'0 0.0
2015-Jun-25 22:33N 40°40' W 074°05'0 0.0
2015-Jun-25 21:33N 40°40' W 074°05'0 0.0
2015-Jun-25 20:33N 40°40' W 074°05'0 0.0
2015-Jun-25 19:33N 40°40' W 074°05'0 0.0
2015-Jun-25 18:33N 40°40' W 074°05'0 0.0
2015-Jun-25 17:33N 40°40' W 074°05'0 0.0
2015-Jun-25 16:33N 40°40' W 074°05'0 0.0
2015-Jun-25 15:33N 40°40' W 074°05'0 0.0
2015-Jun-25 14:33N 40°40' W 074°05'0 0.0
2015-Jun-25 13:33N 40°40' W 074°05'0 0.0
2015-Jun-25 12:33N 40°40' W 074°05'0 0.0
2015-Jun-25 11:33N 40°40' W 074°05'0 0.0
2015-Jun-25 10:33N 40°40' W 074°05'2 1.9
2015-Jun-25 09:33N 40°39' W 074°03'9 8.8
2015-Jun-25 08:33N 40°31' W 073°59'9 9.1
2015-Jun-25 07:33N 40°27' W 073°48'7 6.8
2015-Jun-25 06:33N 40°20' W 073°46'10 9.6
2015-Jun-25 05:33N 40°10' W 073°44'1514.8
2015-Jun-25 04:33N 39°56' W 073°41'1615.8
2015-Jun-25 03:33N 39°40' W 073°41'1616.2
2015-Jun-25 02:33N 39°24' W 073°46'1616.2
2015-Jun-25 01:33N 39°08' W 073°50'1616.2
2015-Jun-25 00:33N 38°53' W 073°55'3316.3
2015-Jun-24 22:32N 38°20' W 074°03'79815.6
2015-Jun-22 19:31N 26°04' W 080°07'0 0.0
2015-Jun-22 18:31N 26°04' W 080°07'0 0.0
2015-Jun-22 17:31N 26°04' W 080°07'0 0.0
2015-Jun-22 16:31N 26°04' W 080°07'0 0.0
2015-Jun-22 15:31N 26°04' W 080°07'0 0.0
2015-Jun-22 14:31N 26°04' W 080°07'0 0.0
2015-Jun-22 13:22N 26°04' W 080°07'  
Track history (hours):
 
Tides and Currents Weather Stations Pressure Air Temp Water Temp Dewpoint Dewpoint Depression Visibility Wind Speed Wind Dir Waves Ship Positions

Cap Isabel

Last reported at 2015-Jul-02 09:31 UTC. Time now 2015-Jul-31 15:25 UTC.
Position N 25°39' W 079°57'.
Warning: this ship's position is 29 days out of date.

Length 264 m; draft 10.9 m.

Type: Ship (hazmat cat C). MMSI: 477639500.

Date/timePositionNaut miles runAvg speedWind from/ knotsBaromVisibWave heightAir tempDewpointWater temp
2015-Jul-02 09:31N 25°39' W 079°57'1010.7
2015-Jul-02 08:33N 25°48' W 079°60'1212.2
2015-Jul-02 07:33N 26°00' W 080°03'5 5.4
2015-Jul-02 06:33N 26°05' W 080°07'0 0.2
2015-Jul-02 05:22N 26°04' W 080°07'0 0.0
2015-Jul-02 04:25N 26°04' W 080°07'0 0.0
2015-Jul-02 03:25N 26°04' W 080°07'0 0.0
2015-Jul-02 02:25N 26°04' W 080°07'0 0.0
2015-Jul-02 01:28N 26°04' W 080°07'0 0.0
2015-Jul-02 00:28N 26°04' W 080°07'0 0.0
2015-Jul-01 23:31N 26°04' W 080°07'0 0.0
2015-Jul-01 22:31N 26°04' W 080°07'0 0.0
2015-Jul-01 21:31N 26°04' W 080°07'0 0.0
2015-Jul-01 20:28N 26°04' W 080°07'0 0.0
2015-Jul-01 19:31N 26°04' W 080°07'0 0.0
2015-Jul-01 18:31N 26°04' W 080°07'0 0.0
2015-Jul-01 17:31N 26°04' W 080°07'0 0.0
2015-Jul-01 16:31N 26°04' W 080°07'0 0.0
2015-Jul-01 15:07N 26°04' W 080°07'1 1.4
2015-Jul-01 14:33N 26°05' W 080°07'6 5.6
2015-Jul-01 13:33N 26°09' W 080°02'1313.1
2015-Jul-01 12:34N 26°22' W 079°59'1414.2
2015-Jul-01 11:34N 26°36' W 079°56'1615.7
2015-Jul-01 10:34N 26°51' W 079°56'1815.4
2015-Jul-01 09:24N 27°09' W 079°56'1315.2
2015-Jul-01 08:33N 27°22' W 079°55'1514.9
2015-Jul-01 07:33N 27°37' W 079°56'26715.3
2015-Jun-30 14:09N 32°03' W 079°45'217 7.1
2015-Jun-29 07:29N 34°14' W 076°17'1516.4
2015-Jun-29 06:33N 34°23' W 076°02'21713.4
2015-Jun-28 14:19N 37°60' W 076°12'4720.5
2015-Jun-28 12:03N 38°45' W 076°26'1020.7
2015-Jun-28 11:34N 38°55' W 076°23'1614.8
2015-Jun-28 10:29N 39°11' W 076°27'6 5.4
2015-Jun-28 09:20N 39°15' W 076°33'0 0.0
2015-Jun-27 20:21N 39°15' W 076°33'4 4.8
2015-Jun-27 19:33N 39°12' W 076°30'7518.2
2015-Jun-27 15:27N 37°59' W 076°11'76 5.8
2015-Jun-27 02:26N 38°14' W 074°37'1112.3
2015-Jun-27 01:33N 38°24' W 074°32'1312.4
2015-Jun-27 00:33N 38°35' W 074°24'49 4.4
2015-Jun-26 13:32N 39°21' W 074°03'1111.1
2015-Jun-26 12:33N 39°31' W 073°58'1111.0
2015-Jun-26 11:33N 39°42' W 073°54'1110.9
2015-Jun-26 10:32N 39°53' W 073°52'3110.3
2015-Jun-26 07:33N 40°23' W 073°48'8 7.8
2015-Jun-26 06:33N 40°29' W 073°55'1212.2
2015-Jun-26 05:34N 40°39' W 074°03'2 1.6
2015-Jun-26 04:33N 40°40' W 074°05'0 0.0
2015-Jun-26 03:33N 40°40' W 074°05'0 0.0
2015-Jun-26 02:33N 40°40' W 074°05'0 0.0
2015-Jun-26 01:33N 40°40' W 074°05'0 0.0
2015-Jun-26 00:33N 40°40' W 074°05'0 0.0
2015-Jun-25 23:33N 40°40' W 074°05'0 0.0
2015-Jun-25 22:33N 40°40' W 074°05'0 0.0
2015-Jun-25 21:33N 40°40' W 074°05'0 0.0
2015-Jun-25 20:33N 40°40' W 074°05'0 0.0
2015-Jun-25 19:33N 40°40' W 074°05'0 0.0
2015-Jun-25 18:33N 40°40' W 074°05'0 0.0
2015-Jun-25 17:33N 40°40' W 074°05'0 0.0
2015-Jun-25 16:33N 40°40' W 074°05'0 0.0
2015-Jun-25 15:33N 40°40' W 074°05'0 0.0
2015-Jun-25 14:33N 40°40' W 074°05'0 0.0
2015-Jun-25 13:33N 40°40' W 074°05'0 0.0
2015-Jun-25 12:33N 40°40' W 074°05'0 0.0
2015-Jun-25 11:33N 40°40' W 074°05'0 0.0
2015-Jun-25 10:33N 40°40' W 074°05'2 1.9
2015-Jun-25 09:33N 40°39' W 074°03'9 8.8
2015-Jun-25 08:33N 40°31' W 073°59'9 9.1
2015-Jun-25 07:33N 40°27' W 073°48'7 6.8
2015-Jun-25 06:33N 40°20' W 073°46'10 9.6
2015-Jun-25 05:33N 40°10' W 073°44'1514.8
2015-Jun-25 04:33N 39°56' W 073°41'1615.8
2015-Jun-25 03:33N 39°40' W 073°41'1616.2
2015-Jun-25 02:33N 39°24' W 073°46'1616.2
2015-Jun-25 01:33N 39°08' W 073°50'1616.2
2015-Jun-25 00:33N 38°53' W 073°55'3316.3
2015-Jun-24 22:32N 38°20' W 074°03'79815.6
2015-Jun-22 19:31N 26°04' W 080°07'0 0.0
2015-Jun-22 18:31N 26°04' W 080°07'0 0.0
2015-Jun-22 17:31N 26°04' W 080°07'0 0.0
2015-Jun-22 16:31N 26°04' W 080°07'0 0.0
2015-Jun-22 15:31N 26°04' W 080°07'0 0.0
2015-Jun-22 14:31N 26°04' W 080°07'0 0.0
2015-Jun-22 13:22N 26°04' W 080°07'  

Dump ship's entire track history